sensor_id;sensor_type;location;lat;lon;timestamp;temperature;humidity
16273;DHT22;8244;50.044;9.006;2024-03-17T00:02:27;5.60;99.90
16273;DHT22;8244;50.044;9.006;2024-03-17T00:07:29;5.50;99.90
16273;DHT22;8244;50.044;9.006;2024-03-17T00:12:32;5.50;99.90
16273;DHT22;8244;50.044;9.006;2024-03-17T00:17:34;5.40;99.90
16273;DHT22;8244;50.044;9.006;2024-03-17T00:22:36;5.40;99.90
16273;DHT22;8244;50.044;9.006;2024-03-17T00:27:41;5.30;99.90
16273;DHT22;8244;50.044;9.006;2024-03-17T00:32:45;5.20;99.90
16273;DHT22;8244;50.044;9.006;2024-03-17T00:37:47;5.10;99.90
16273;DHT22;8244;50.044;9.006;2024-03-17T00:42:50;5.00;99.90
16273;DHT22;8244;50.044;9.006;2024-03-17T00:47:54;4.90;99.90
16273;DHT22;8244;50.044;9.006;2024-03-17T00:52:56;4.80;99.90
16273;DHT22;8244;50.044;9.006;2024-03-17T00:57:59;4.70;99.90
16273;DHT22;8244;50.044;9.006;2024-03-17T01:03:01;4.60;99.90
16273;DHT22;8244;50.044;9.006;2024-03-17T01:08:03;4.60;99.90
16273;DHT22;8244;50.044;9.006;2024-03-17T01:13:08;4.50;99.90
16273;DHT22;8244;50.044;9.006;2024-03-17T01:18:10;4.40;99.90
16273;DHT22;8244;50.044;9.006;2024-03-17T01:23:12;4.40;99.90
16273;DHT22;8244;50.044;9.006;2024-03-17T01:28:16;4.30;99.90
16273;DHT22;8244;50.044;9.006;2024-03-17T01:33:18;4.30;99.90
16273;DHT22;8244;50.044;9.006;2024-03-17T01:38:21;4.20;99.90
16273;DHT22;8244;50.044;9.006;2024-03-17T01:43:24;4.20;99.90
16273;DHT22;8244;50.044;9.006;2024-03-17T01:48:26;4.10;99.90
16273;DHT22;8244;50.044;9.006;2024-03-17T01:53:28;4.00;99.90
16273;DHT22;8244;50.044;9.006;2024-03-17T01:58:31;3.90;99.90
16273;DHT22;8244;50.044;9.006;2024-03-17T02:03:34;3.80;99.90
16273;DHT22;8244;50.044;9.006;2024-03-17T02:08:49;3.80;99.90
16273;DHT22;8244;50.044;9.006;2024-03-17T02:13:52;3.70;99.90
16273;DHT22;8244;50.044;9.006;2024-03-17T02:18:54;3.70;99.90
16273;DHT22;8244;50.044;9.006;2024-03-17T02:23:58;3.60;99.90
16273;DHT22;8244;50.044;9.006;2024-03-17T02:28:59;3.60;99.90
16273;DHT22;8244;50.044;9.006;2024-03-17T02:34:01;3.50;99.90
16273;DHT22;8244;50.044;9.006;2024-03-17T02:39:04;3.50;99.90
16273;DHT22;8244;50.044;9.006;2024-03-17T02:44:24;3.40;99.90
16273;DHT22;8244;50.044;9.006;2024-03-17T02:49:27;3.30;99.90
16273;DHT22;8244;50.044;9.006;2024-03-17T02:54:37;3.20;99.90
16273;DHT22;8244;50.044;9.006;2024-03-17T02:59:40;3.10;99.90
16273;DHT22;8244;50.044;9.006;2024-03-17T03:04:42;3.00;99.90
16273;DHT22;8244;50.044;9.006;2024-03-17T03:09:45;2.90;99.90
16273;DHT22;8244;50.044;9.006;2024-03-17T03:14:47;2.80;99.90
16273;DHT22;8244;50.044;9.006;2024-03-17T03:19:50;2.80;99.90
16273;DHT22;8244;50.044;9.006;2024-03-17T03:24:53;2.70;99.90
16273;DHT22;8244;50.044;9.006;2024-03-17T03:29:55;2.60;99.90
16273;DHT22;8244;50.044;9.006;2024-03-17T03:34:57;2.60;99.90
16273;DHT22;8244;50.044;9.006;2024-03-17T03:40:00;2.50;99.90
16273;DHT22;8244;50.044;9.006;2024-03-17T03:45:02;2.50;99.90
16273;DHT22;8244;50.044;9.006;2024-03-17T03:55:09;2.40;99.90
16273;DHT22;8244;50.044;9.006;2024-03-17T04:00:13;2.30;99.90
16273;DHT22;8244;50.044;9.006;2024-03-17T04:05:16;2.30;99.90
16273;DHT22;8244;50.044;9.006;2024-03-17T04:10:19;2.20;99.90
16273;DHT22;8244;50.044;9.006;2024-03-17T04:15:21;2.20;99.90
16273;DHT22;8244;50.044;9.006;2024-03-17T04:20:23;2.10;99.90
16273;DHT22;8244;50.044;9.006;2024-03-17T04:25:26;2.10;99.90
16273;DHT22;8244;50.044;9.006;2024-03-17T04:30:28;2.10;99.90
16273;DHT22;8244;50.044;9.006;2024-03-17T04:35:30;2.10;99.90
16273;DHT22;8244;50.044;9.006;2024-03-17T04:40:33;2.10;99.90
16273;DHT22;8244;50.044;9.006;2024-03-17T04:45:36;2.10;99.90
16273;DHT22;8244;50.044;9.006;2024-03-17T04:50:38;2.20;99.90
16273;DHT22;8244;50.044;9.006;2024-03-17T04:55:41;2.20;99.90
16273;DHT22;8244;50.044;9.006;2024-03-17T05:00:43;2.20;99.90
16273;DHT22;8244;50.044;9.006;2024-03-17T05:05:44;2.30;99.90
16273;DHT22;8244;50.044;9.006;2024-03-17T05:10:48;2.40;99.90
16273;DHT22;8244;50.044;9.006;2024-03-17T05:15:49;2.40;99.90
16273;DHT22;8244;50.044;9.006;2024-03-17T05:21:01;2.40;99.90
16273;DHT22;8244;50.044;9.006;2024-03-17T05:26:05;2.40;99.90
16273;DHT22;8244;50.044;9.006;2024-03-17T05:31:07;2.40;99.90
16273;DHT22;8244;50.044;9.006;2024-03-17T05:36:09;2.40;99.90
16273;DHT22;8244;50.044;9.006;2024-03-17T05:41:13;2.30;99.90
16273;DHT22;8244;50.044;9.006;2024-03-17T05:46:15;2.30;99.90
16273;DHT22;8244;50.044;9.006;2024-03-17T05:51:18;2.30;99.90
16273;DHT22;8244;50.044;9.006;2024-03-17T05:56:21;2.20;99.90
16273;DHT22;8244;50.044;9.006;2024-03-17T06:01:23;2.20;99.90
16273;DHT22;8244;50.044;9.006;2024-03-17T06:06:25;2.20;99.90
16273;DHT22;8244;50.044;9.006;2024-03-17T06:11:28;2.20;99.90
16273;DHT22;8244;50.044;9.006;2024-03-17T06:16:30;2.40;99.90
16273;DHT22;8244;50.044;9.006;2024-03-17T06:21:32;2.70;99.90
16273;DHT22;8244;50.044;9.006;2024-03-17T06:26:35;3.10;99.90
16273;DHT22;8244;50.044;9.006;2024-03-17T06:31:37;3.40;99.90
16273;DHT22;8244;50.044;9.006;2024-03-17T06:36:38;3.60;99.90
16273;DHT22;8244;50.044;9.006;2024-03-17T06:41:41;3.70;99.90
16273;DHT22;8244;50.044;9.006;2024-03-17T06:46:44;3.90;99.90
16273;DHT22;8244;50.044;9.006;2024-03-17T06:51:47;4.00;99.90
16273;DHT22;8244;50.044;9.006;2024-03-17T06:56:51;4.20;99.90
16273;DHT22;8244;50.044;9.006;2024-03-17T07:01:53;4.40;99.90
16273;DHT22;8244;50.044;9.006;2024-03-17T07:06:54;4.70;99.90
16273;DHT22;8244;50.044;9.006;2024-03-17T07:11:58;4.90;99.90
16273;DHT22;8244;50.044;9.006;2024-03-17T07:16:59;5.10;99.90
16273;DHT22;8244;50.044;9.006;2024-03-17T07:22:01;5.30;99.90
16273;DHT22;8244;50.044;9.006;2024-03-17T07:27:05;5.30;99.90
16273;DHT22;8244;50.044;9.006;2024-03-17T07:32:13;5.50;99.90
16273;DHT22;8244;50.044;9.006;2024-03-17T07:37:15;5.60;99.90
16273;DHT22;8244;50.044;9.006;2024-03-17T07:42:18;5.80;99.90
16273;DHT22;8244;50.044;9.006;2024-03-17T07:47:19;6.20;99.90
16273;DHT22;8244;50.044;9.006;2024-03-17T07:52:21;6.50;99.90
16273;DHT22;8244;50.044;9.006;2024-03-17T07:57:24;6.90;99.90
16273;DHT22;8244;50.044;9.006;2024-03-17T08:02:27;7.50;99.90
16273;DHT22;8244;50.044;9.006;2024-03-17T08:07:32;8.50;99.90
16273;DHT22;8244;50.044;9.006;2024-03-17T08:12:35;9.70;99.90
16273;DHT22;8244;50.044;9.006;2024-03-17T08:17:36;10.80;99.90
16273;DHT22;8244;50.044;9.006;2024-03-17T08:22:38;11.80;99.90
16273;DHT22;8244;50.044;9.006;2024-03-17T08:27:42;12.60;99.90
16273;DHT22;8244;50.044;9.006;2024-03-17T08:32:44;13.40;99.90
16273;DHT22;8244;50.044;9.006;2024-03-17T08:37:45;14.00;99.90
16273;DHT22;8244;50.044;9.006;2024-03-17T08:42:49;14.50;99.90
16273;DHT22;8244;50.044;9.006;2024-03-17T08:47:51;15.10;99.90
16273;DHT22;8244;50.044;9.006;2024-03-17T08:52:53;15.70;97.80
16273;DHT22;8244;50.044;9.006;2024-03-17T08:57:57;16.10;95.60
16273;DHT22;8244;50.044;9.006;2024-03-17T09:02:59;16.60;96.30
16273;DHT22;8244;50.044;9.006;2024-03-17T09:08:00;17.10;92.40
16273;DHT22;8244;50.044;9.006;2024-03-17T09:13:04;17.10;92.30
16273;DHT22;8244;50.044;9.006;2024-03-17T09:18:06;17.20;89.30
16273;DHT22;8244;50.044;9.006;2024-03-17T09:23:08;17.40;90.10
16273;DHT22;8244;50.044;9.006;2024-03-17T09:28:11;17.50;88.70
16273;DHT22;8244;50.044;9.006;2024-03-17T09:33:13;17.60;89.10
16273;DHT22;8244;50.044;9.006;2024-03-17T09:38:14;17.70;89.90
16273;DHT22;8244;50.044;9.006;2024-03-17T09:43:18;17.90;87.80
16273;DHT22;8244;50.044;9.006;2024-03-17T09:48:20;17.30;89.50
16273;DHT22;8244;50.044;9.006;2024-03-17T09:53:24;17.60;90.40
16273;DHT22;8244;50.044;9.006;2024-03-17T09:58:27;17.90;89.90
16273;DHT22;8244;50.044;9.006;2024-03-17T10:03:39;18.20;87.70
16273;DHT22;8244;50.044;9.006;2024-03-17T10:08:46;18.10;86.00
16273;DHT22;8244;50.044;9.006;2024-03-17T10:13:59;18.00;85.80
16273;DHT22;8244;50.044;9.006;2024-03-17T10:19:09;17.80;88.10
16273;DHT22;8244;50.044;9.006;2024-03-17T10:24:13;17.80;89.10
16273;DHT22;8244;50.044;9.006;2024-03-17T10:29:24;18.00;84.20
16273;DHT22;8244;50.044;9.006;2024-03-17T10:34:27;17.90;84.80
16273;DHT22;8244;50.044;9.006;2024-03-17T10:39:35;17.90;85.00
16273;DHT22;8244;50.044;9.006;2024-03-17T10:44:40;18.20;86.00
16273;DHT22;8244;50.044;9.006;2024-03-17T10:49:43;18.40;80.60
16273;DHT22;8244;50.044;9.006;2024-03-17T10:54:47;18.00;81.20
16273;DHT22;8244;50.044;9.006;2024-03-17T10:59:52;17.50;82.70
16273;DHT22;8244;50.044;9.006;2024-03-17T11:04:57;17.50;85.70
16273;DHT22;8244;50.044;9.006;2024-03-17T11:09:59;17.80;82.30
16273;DHT22;8244;50.044;9.006;2024-03-17T11:15:37;17.20;82.80
16273;DHT22;8244;50.044;9.006;2024-03-17T11:20:42;17.00;85.20
16273;DHT22;8244;50.044;9.006;2024-03-17T11:25:51;17.00;84.30
16273;DHT22;8244;50.044;9.006;2024-03-17T11:30:54;17.40;83.80
16273;DHT22;8244;50.044;9.006;2024-03-17T11:36:32;17.90;83.30
16273;DHT22;8244;50.044;9.006;2024-03-17T11:41:37;18.30;83.70
16273;DHT22;8244;50.044;9.006;2024-03-17T11:46:42;18.70;85.90
16273;DHT22;8244;50.044;9.006;2024-03-17T11:51:45;18.90;85.70
16273;DHT22;8244;50.044;9.006;2024-03-17T11:56:48;19.00;82.70
16273;DHT22;8244;50.044;9.006;2024-03-17T12:01:52;19.20;81.90
16273;DHT22;8244;50.044;9.006;2024-03-17T12:06:55;19.40;85.20
16273;DHT22;8244;50.044;9.006;2024-03-17T12:11:59;19.50;84.80
16273;DHT22;8244;50.044;9.006;2024-03-17T12:17:03;19.60;82.80
16273;DHT22;8244;50.044;9.006;2024-03-17T12:22:06;19.60;78.60
16273;DHT22;8244;50.044;9.006;2024-03-17T12:27:08;19.40;78.00
16273;DHT22;8244;50.044;9.006;2024-03-17T12:32:19;19.70;86.40
16273;DHT22;8244;50.044;9.006;2024-03-17T12:37:23;20.30;87.10
16273;DHT22;8244;50.044;9.006;2024-03-17T12:42:26;20.70;79.30
16273;DHT22;8244;50.044;9.006;2024-03-17T12:47:31;21.00;84.40
16273;DHT22;8244;50.044;9.006;2024-03-17T12:52:35;21.30;82.90
16273;DHT22;8244;50.044;9.006;2024-03-17T12:57:37;21.50;83.50
16273;DHT22;8244;50.044;9.006;2024-03-17T13:02:58;21.70;85.40
16273;DHT22;8244;50.044;9.006;2024-03-17T13:08:00;21.70;78.90
16273;DHT22;8244;50.044;9.006;2024-03-17T13:13:03;21.70;84.00
16273;DHT22;8244;50.044;9.006;2024-03-17T13:18:07;21.60;82.40
16273;DHT22;8244;50.044;9.006;2024-03-17T13:23:09;21.70;84.00
16273;DHT22;8244;50.044;9.006;2024-03-17T13:28:11;21.60;83.50
16273;DHT22;8244;50.044;9.006;2024-03-17T13:33:14;21.70;83.50
16273;DHT22;8244;50.044;9.006;2024-03-17T13:38:16;21.60;79.10
16273;DHT22;8244;50.044;9.006;2024-03-17T13:43:18;21.10;78.90
16273;DHT22;8244;50.044;9.006;2024-03-17T13:48:21;20.70;85.10
16273;DHT22;8244;50.044;9.006;2024-03-17T13:53:23;20.80;81.20
16273;DHT22;8244;50.044;9.006;2024-03-17T13:58:25;20.50;79.60
16273;DHT22;8244;50.044;9.006;2024-03-17T14:03:28;20.30;84.90
16273;DHT22;8244;50.044;9.006;2024-03-17T14:08:32;20.40;84.50
16273;DHT22;8244;50.044;9.006;2024-03-17T14:13:33;20.00;79.10
16273;DHT22;8244;50.044;9.006;2024-03-17T14:18:37;19.70;79.30
16273;DHT22;8244;50.044;9.006;2024-03-17T14:23:39;19.00;84.20
16273;DHT22;8244;50.044;9.006;2024-03-17T14:28:42;18.90;85.00
16273;DHT22;8244;50.044;9.006;2024-03-17T14:33:45;19.00;84.30
16273;DHT22;8244;50.044;9.006;2024-03-17T14:38:47;19.20;81.80
16273;DHT22;8244;50.044;9.006;2024-03-17T14:43:49;18.90;79.30
16273;DHT22;8244;50.044;9.006;2024-03-17T14:48:53;18.40;80.20
16273;DHT22;8244;50.044;9.006;2024-03-17T14:53:54;18.10;81.30
16273;DHT22;8244;50.044;9.006;2024-03-17T14:58:57;18.00;82.60
16273;DHT22;8244;50.044;9.006;2024-03-17T15:04:00;18.10;83.20
16273;DHT22;8244;50.044;9.006;2024-03-17T15:09:02;18.10;81.80
16273;DHT22;8244;50.044;9.006;2024-03-17T15:14:05;18.10;87.80
16273;DHT22;8244;50.044;9.006;2024-03-17T15:19:12;18.00;83.30
16273;DHT22;8244;50.044;9.006;2024-03-17T15:24:14;17.90;85.50
16273;DHT22;8244;50.044;9.006;2024-03-17T15:29:16;17.90;83.00
16273;DHT22;8244;50.044;9.006;2024-03-17T15:34:20;17.60;87.00
16273;DHT22;8244;50.044;9.006;2024-03-17T15:39:22;17.40;84.20
16273;DHT22;8244;50.044;9.006;2024-03-17T15:44:24;17.30;86.00
16273;DHT22;8244;50.044;9.006;2024-03-17T15:49:27;17.30;88.00
16273;DHT22;8244;50.044;9.006;2024-03-17T15:54:29;17.20;89.80
16273;DHT22;8244;50.044;9.006;2024-03-17T15:59:31;17.10;86.80
16273;DHT22;8244;50.044;9.006;2024-03-17T16:04:34;17.10;87.80
16273;DHT22;8244;50.044;9.006;2024-03-17T16:09:36;17.10;87.50
16273;DHT22;8244;50.044;9.006;2024-03-17T16:14:38;17.10;87.90
16273;DHT22;8244;50.044;9.006;2024-03-17T16:19:43;17.00;88.10
16273;DHT22;8244;50.044;9.006;2024-03-17T16:24:46;16.80;86.60
16273;DHT22;8244;50.044;9.006;2024-03-17T16:29:48;16.70;88.00
16273;DHT22;8244;50.044;9.006;2024-03-17T16:34:51;16.40;88.50
16273;DHT22;8244;50.044;9.006;2024-03-17T16:39:53;16.10;88.50
16273;DHT22;8244;50.044;9.006;2024-03-17T16:45:00;15.90;89.90
16273;DHT22;8244;50.044;9.006;2024-03-17T16:50:07;15.70;90.00
16273;DHT22;8244;50.044;9.006;2024-03-17T16:55:10;15.70;90.40
16273;DHT22;8244;50.044;9.006;2024-03-17T17:00:13;15.50;90.00
16273;DHT22;8244;50.044;9.006;2024-03-17T17:05:17;15.40;90.60
16273;DHT22;8244;50.044;9.006;2024-03-17T17:15:22;15.20;91.40
16273;DHT22;8244;50.044;9.006;2024-03-17T17:20:25;15.10;91.60
16273;DHT22;8244;50.044;9.006;2024-03-17T17:25:27;15.00;91.60
16273;DHT22;8244;50.044;9.006;2024-03-17T17:30:29;14.80;91.50
16273;DHT22;8244;50.044;9.006;2024-03-17T17:35:33;14.70;92.50
16273;DHT22;8244;50.044;9.006;2024-03-17T17:40:37;14.40;93.00
16273;DHT22;8244;50.044;9.006;2024-03-17T17:45:39;14.20;93.00
16273;DHT22;8244;50.044;9.006;2024-03-17T17:50:43;14.00;93.20
16273;DHT22;8244;50.044;9.006;2024-03-17T17:55:45;13.80;93.70
16273;DHT22;8244;50.044;9.006;2024-03-17T18:00:46;13.60;94.30
16273;DHT22;8244;50.044;9.006;2024-03-17T18:05:51;13.40;95.40
16273;DHT22;8244;50.044;9.006;2024-03-17T18:10:53;13.20;95.60
16273;DHT22;8244;50.044;9.006;2024-03-17T18:15:56;13.10;96.40
16273;DHT22;8244;50.044;9.006;2024-03-17T18:21:00;12.80;96.70
16273;DHT22;8244;50.044;9.006;2024-03-17T18:26:06;12.70;98.10
16273;DHT22;8244;50.044;9.006;2024-03-17T18:31:09;12.50;98.10
16273;DHT22;8244;50.044;9.006;2024-03-17T18:36:14;12.40;98.00
16273;DHT22;8244;50.044;9.006;2024-03-17T18:41:16;12.30;98.20
16273;DHT22;8244;50.044;9.006;2024-03-17T18:46:19;12.20;99.50
16273;DHT22;8244;50.044;9.006;2024-03-17T18:51:23;12.10;99.90
16273;DHT22;8244;50.044;9.006;2024-03-17T18:56:25;12.00;99.90
16273;DHT22;8244;50.044;9.006;2024-03-17T19:01:26;11.90;99.90
16273;DHT22;8244;50.044;9.006;2024-03-17T19:06:30;11.80;99.90
16273;DHT22;8244;50.044;9.006;2024-03-17T19:11:32;11.70;99.90
16273;DHT22;8244;50.044;9.006;2024-03-17T19:16:35;11.60;99.90
16273;DHT22;8244;50.044;9.006;2024-03-17T19:21:38;11.50;99.90
16273;DHT22;8244;50.044;9.006;2024-03-17T19:26:46;11.40;99.90
16273;DHT22;8244;50.044;9.006;2024-03-17T19:31:48;11.20;99.90
16273;DHT22;8244;50.044;9.006;2024-03-17T19:36:52;11.10;99.90
16273;DHT22;8244;50.044;9.006;2024-03-17T19:41:54;11.00;99.90
16273;DHT22;8244;50.044;9.006;2024-03-17T19:46:56;10.90;99.90
16273;DHT22;8244;50.044;9.006;2024-03-17T19:51:59;10.90;99.90
16273;DHT22;8244;50.044;9.006;2024-03-17T19:57:01;10.80;99.90
16273;DHT22;8244;50.044;9.006;2024-03-17T20:02:03;10.80;99.90
16273;DHT22;8244;50.044;9.006;2024-03-17T20:07:06;10.70;99.90
16273;DHT22;8244;50.044;9.006;2024-03-17T20:12:09;10.70;99.90
16273;DHT22;8244;50.044;9.006;2024-03-17T20:17:12;10.60;99.90
16273;DHT22;8244;50.044;9.006;2024-03-17T20:22:15;10.60;99.90
16273;DHT22;8244;50.044;9.006;2024-03-17T20:27:17;10.50;99.90
16273;DHT22;8244;50.044;9.006;2024-03-17T20:32:19;10.50;99.90
16273;DHT22;8244;50.044;9.006;2024-03-17T20:37:22;10.40;99.90
16273;DHT22;8244;50.044;9.006;2024-03-17T20:42:26;10.30;99.90
16273;DHT22;8244;50.044;9.006;2024-03-17T20:47:28;10.30;99.90
16273;DHT22;8244;50.044;9.006;2024-03-17T20:52:31;10.20;99.90
16273;DHT22;8244;50.044;9.006;2024-03-17T20:57:33;10.20;99.90
16273;DHT22;8244;50.044;9.006;2024-03-17T21:02:36;10.10;99.90
16273;DHT22;8244;50.044;9.006;2024-03-17T21:07:39;10.10;99.90
16273;DHT22;8244;50.044;9.006;2024-03-17T21:12:42;10.00;99.90
16273;DHT22;8244;50.044;9.006;2024-03-17T21:17:45;10.00;99.90
16273;DHT22;8244;50.044;9.006;2024-03-17T21:22:49;10.00;99.90
16273;DHT22;8244;50.044;9.006;2024-03-17T21:27:51;10.00;99.90
16273;DHT22;8244;50.044;9.006;2024-03-17T21:32:53;9.90;99.90
16273;DHT22;8244;50.044;9.006;2024-03-17T21:37:57;9.80;99.90
16273;DHT22;8244;50.044;9.006;2024-03-17T21:42:58;9.80;99.90
16273;DHT22;8244;50.044;9.006;2024-03-17T21:48:00;9.70;99.90
16273;DHT22;8244;50.044;9.006;2024-03-17T21:53:04;9.60;99.90
16273;DHT22;8244;50.044;9.006;2024-03-17T21:58:06;9.50;99.90
16273;DHT22;8244;50.044;9.006;2024-03-17T22:03:08;9.40;99.90
16273;DHT22;8244;50.044;9.006;2024-03-17T22:08:11;9.20;99.90
16273;DHT22;8244;50.044;9.006;2024-03-17T22:13:13;9.10;99.90
16273;DHT22;8244;50.044;9.006;2024-03-17T22:18:15;9.10;99.90
16273;DHT22;8244;50.044;9.006;2024-03-17T22:23:19;9.00;99.90
16273;DHT22;8244;50.044;9.006;2024-03-17T22:28:21;8.90;99.90
16273;DHT22;8244;50.044;9.006;2024-03-17T22:33:24;8.80;99.90
16273;DHT22;8244;50.044;9.006;2024-03-17T22:38:28;8.70;99.90
16273;DHT22;8244;50.044;9.006;2024-03-17T22:43:31;8.70;99.90
16273;DHT22;8244;50.044;9.006;2024-03-17T22:48:34;8.50;99.90
16273;DHT22;8244;50.044;9.006;2024-03-17T22:53:40;8.40;99.90
16273;DHT22;8244;50.044;9.006;2024-03-17T22:58:42;8.30;99.90
16273;DHT22;8244;50.044;9.006;2024-03-17T23:03:44;8.30;99.90
16273;DHT22;8244;50.044;9.006;2024-03-17T23:08:47;8.20;99.90
16273;DHT22;8244;50.044;9.006;2024-03-17T23:13:49;8.20;99.90
16273;DHT22;8244;50.044;9.006;2024-03-17T23:18:52;8.30;99.90
16273;DHT22;8244;50.044;9.006;2024-03-17T23:23:55;8.30;99.90
16273;DHT22;8244;50.044;9.006;2024-03-17T23:28:57;8.20;99.90
16273;DHT22;8244;50.044;9.006;2024-03-17T23:33:58;8.30;99.90
16273;DHT22;8244;50.044;9.006;2024-03-17T23:39:04;8.30;99.90
16273;DHT22;8244;50.044;9.006;2024-03-17T23:44:06;8.30;99.90
16273;DHT22;8244;50.044;9.006;2024-03-17T23:49:08;8.30;99.90
16273;DHT22;8244;50.044;9.006;2024-03-17T23:54:11;8.40;99.90
16273;DHT22;8244;50.044;9.006;2024-03-17T23:59:13;8.40;99.90
